Sg Express — 3FGV6 — position and weather

sailwx.info

Track history (hours):
 
Tides and Currents Weather Stations Pressure Air Temp Water Temp Dewpoint Dewpoint Depression Visibility Wind Speed Wind Dir Waves Ship Positions

Sg Express

Last reported at 2017-Oct-16 11:15 UTC. Time now 2017-Oct-19 18:40 UTC.
Position N 01°17' E 103°58'.

Length 295 m; draft 8.6 m.

Type: Cargo ship. MMSI: 351772000.

Date/timePositionNaut miles runAvg speedWind from/ knotsBaromVisibWave heightAir tempDewpointWater temp
2017-Oct-16 11:15N 01°17' E 103°58'0 0.2
2017-Oct-16 10:58N 01°17' E 103°58'0 0.0
2017-Oct-16 10:16N 01°17' E 103°58'0 0.0
2017-Oct-16 10:00N 01°17' E 103°58'0 0.0
2017-Oct-16 09:30N 01°17' E 103°58'0 0.0
2017-Oct-16 08:59N 01°17' E 103°58'0 0.0
2017-Oct-16 08:26N 01°17' E 103°58'0 0.0
2017-Oct-16 07:55N 01°17' E 103°58'0 0.0
2017-Oct-16 07:23N 01°17' E 103°58'0 0.0
2017-Oct-16 06:51N 01°17' E 103°58'0 0.2
2017-Oct-16 06:23N 01°17' E 103°58'0 0.0
2017-Oct-16 05:56N 01°17' E 103°58'0 0.0
2017-Oct-16 05:29N 01°17' E 103°58'0 0.0
2017-Oct-16 04:49N 01°17' E 103°58'0 0.0
2017-Oct-16 04:22N 01°17' E 103°58'0 0.0
2017-Oct-16 03:54N 01°17' E 103°58'0 0.0
2017-Oct-16 03:27N 01°17' E 103°58'0 0.0
2017-Oct-16 03:00N 01°17' E 103°58'0 0.0
2017-Oct-16 02:21N 01°17' E 103°58'1 1.4
2017-Oct-16 01:18N 01°17' E 103°59'2 5.2
2017-Oct-16 01:00N 01°17' E 103°58'0 0.2
2017-Oct-16 00:19N 01°17' E 103°57'0 0.1
2017-Oct-15 23:52N 01°17' E 103°57'0 0.1
2017-Oct-15 23:12N 01°17' E 103°57'0 0.0
2017-Oct-15 22:54N 01°17' E 103°57'0 0.0
2017-Oct-15 22:27N 01°17' E 103°57'0 0.0
2017-Oct-15 21:55N 01°17' E 103°57'0 0.0
2017-Oct-15 21:26N 01°17' E 103°57'0 0.0
2017-Oct-15 20:59N 01°17' E 103°57'0 0.5
2017-Oct-15 20:23N 01°17' E 103°58'0 0.0
2017-Oct-15 19:47N 01°17' E 103°58'0 0.0
2017-Oct-15 19:20N 01°17' E 103°58'0 0.3
2017-Oct-15 18:52N 01°17' E 103°58'0 0.5
2017-Oct-15 18:29N 01°17' E 103°58'0 0.3
2017-Oct-15 17:56N 01°17' E 103°58'0 0.0
2017-Oct-15 16:51N 01°17' E 103°58'0 0.0
2017-Oct-15 16:26N 01°17' E 103°58'0 0.0
2017-Oct-15 15:55N 01°17' E 103°58'0 0.5
2017-Oct-15 15:26N 01°17' E 103°57'0 0.7
2017-Oct-15 14:59N 01°17' E 103°58'0 0.2
2017-Oct-15 14:00N 01°17' E 103°58'1 1.3
2017-Oct-15 13:31N 01°16' E 103°58'2 3.2
2017-Oct-15 12:58N 01°16' E 103°60'2 3.2
2017-Oct-15 12:30N 01°16' E 104°01'2 3.4
2017-Oct-15 12:00N 01°16' E 104°03'1 2.1
2017-Oct-15 11:29N 01°16' E 104°04'6 8.1
2017-Oct-15 10:41N 01°17' E 103°57'0 0.0
2017-Oct-15 03:17N 01°17' E 103°57'1 3.4
2017-Oct-15 02:59N 01°16' E 103°58'  
Track history (hours):
 
Tides and Currents Weather Stations Pressure Air Temp Water Temp Dewpoint Dewpoint Depression Visibility Wind Speed Wind Dir Waves Ship Positions

Sg Express

Last reported at 2017-Oct-16 11:15 UTC. Time now 2017-Oct-19 18:40 UTC.
Position N 01°17' E 103°58'.

Length 295 m; draft 8.6 m.

Type: Cargo ship. MMSI: 351772000.

Date/timePositionNaut miles runAvg speedWind from/ knotsBaromVisibWave heightAir tempDewpointWater temp
2017-Oct-16 11:15N 01°17' E 103°58'0 0.2
2017-Oct-16 10:58N 01°17' E 103°58'0 0.0
2017-Oct-16 10:16N 01°17' E 103°58'0 0.0
2017-Oct-16 10:00N 01°17' E 103°58'0 0.0
2017-Oct-16 09:30N 01°17' E 103°58'0 0.0
2017-Oct-16 08:59N 01°17' E 103°58'0 0.0
2017-Oct-16 08:26N 01°17' E 103°58'0 0.0
2017-Oct-16 07:55N 01°17' E 103°58'0 0.0
2017-Oct-16 07:23N 01°17' E 103°58'0 0.0
2017-Oct-16 06:51N 01°17' E 103°58'0 0.2
2017-Oct-16 06:23N 01°17' E 103°58'0 0.0
2017-Oct-16 05:56N 01°17' E 103°58'0 0.0
2017-Oct-16 05:29N 01°17' E 103°58'0 0.0
2017-Oct-16 04:49N 01°17' E 103°58'0 0.0
2017-Oct-16 04:22N 01°17' E 103°58'0 0.0
2017-Oct-16 03:54N 01°17' E 103°58'0 0.0
2017-Oct-16 03:27N 01°17' E 103°58'0 0.0
2017-Oct-16 03:00N 01°17' E 103°58'0 0.0
2017-Oct-16 02:21N 01°17' E 103°58'1 1.4
2017-Oct-16 01:18N 01°17' E 103°59'2 5.2
2017-Oct-16 01:00N 01°17' E 103°58'0 0.2
2017-Oct-16 00:19N 01°17' E 103°57'0 0.1
2017-Oct-15 23:52N 01°17' E 103°57'0 0.1
2017-Oct-15 23:12N 01°17' E 103°57'0 0.0
2017-Oct-15 22:54N 01°17' E 103°57'0 0.0
2017-Oct-15 22:27N 01°17' E 103°57'0 0.0
2017-Oct-15 21:55N 01°17' E 103°57'0 0.0
2017-Oct-15 21:26N 01°17' E 103°57'0 0.0
2017-Oct-15 20:59N 01°17' E 103°57'0 0.5
2017-Oct-15 20:23N 01°17' E 103°58'0 0.0
2017-Oct-15 19:47N 01°17' E 103°58'0 0.0
2017-Oct-15 19:20N 01°17' E 103°58'0 0.3
2017-Oct-15 18:52N 01°17' E 103°58'0 0.5
2017-Oct-15 18:29N 01°17' E 103°58'0 0.3
2017-Oct-15 17:56N 01°17' E 103°58'0 0.0
2017-Oct-15 16:51N 01°17' E 103°58'0 0.0
2017-Oct-15 16:26N 01°17' E 103°58'0 0.0
2017-Oct-15 15:55N 01°17' E 103°58'0 0.5
2017-Oct-15 15:26N 01°17' E 103°57'0 0.7
2017-Oct-15 14:59N 01°17' E 103°58'0 0.2
2017-Oct-15 14:00N 01°17' E 103°58'1 1.3
2017-Oct-15 13:31N 01°16' E 103°58'2 3.2
2017-Oct-15 12:58N 01°16' E 103°60'2 3.2
2017-Oct-15 12:30N 01°16' E 104°01'2 3.4
2017-Oct-15 12:00N 01°16' E 104°03'1 2.1
2017-Oct-15 11:29N 01°16' E 104°04'6 8.1
2017-Oct-15 10:41N 01°17' E 103°57'0 0.0
2017-Oct-15 03:17N 01°17' E 103°57'1 3.4
2017-Oct-15 02:59N 01°16' E 103°58'  

Dump ship's entire track history